sensor_id;sensor_type;location;lat;lon;timestamp;P1;durP1;ratioP1;P2;durP2;ratioP2
34900;SDS011;21112;51.976;5.660;2024-02-21T00:01:39;9.77;;;3.33;;
34900;SDS011;21112;51.976;5.660;2024-02-21T00:04:06;8.00;;;2.97;;
34900;SDS011;21112;51.976;5.660;2024-02-21T00:06:35;9.05;;;3.00;;
34900;SDS011;21112;51.976;5.660;2024-02-21T07:27:36;15.52;;;4.20;;
34900;SDS011;21112;51.976;5.660;2024-02-21T07:30:06;11.80;;;3.55;;
34900;SDS011;21112;51.976;5.660;2024-02-21T07:32:33;12.45;;;4.40;;
34900;SDS011;21112;51.976;5.660;2024-02-21T07:35:01;13.75;;;4.78;;
34900;SDS011;21112;51.976;5.660;2024-02-21T07:37:33;12.38;;;3.95;;
34900;SDS011;21112;51.976;5.660;2024-02-21T07:40:00;12.93;;;4.70;;
34900;SDS011;21112;51.976;5.660;2024-02-21T07:42:28;13.82;;;5.03;;
34900;SDS011;21112;51.976;5.660;2024-02-21T07:44:57;14.52;;;4.57;;
34900;SDS011;21112;51.976;5.660;2024-02-21T07:47:24;12.00;;;4.82;;
34900;SDS011;21112;51.976;5.660;2024-02-21T07:49:51;15.48;;;4.10;;
34900;SDS011;21112;51.976;5.660;2024-02-21T07:52:18;17.23;;;4.57;;
34900;SDS011;21112;51.976;5.660;2024-02-21T07:54:45;17.23;;;4.97;;
34900;SDS011;21112;51.976;5.660;2024-02-21T07:57:12;10.60;;;4.28;;
34900;SDS011;21112;51.976;5.660;2024-02-21T07:59:39;18.17;;;5.75;;
34900;SDS011;21112;51.976;5.660;2024-02-21T08:02:08;12.57;;;4.18;;
34900;SDS011;21112;51.976;5.660;2024-02-21T08:04:36;10.10;;;4.15;;
34900;SDS011;21112;51.976;5.660;2024-02-21T08:07:04;15.30;;;4.60;;
34900;SDS011;21112;51.976;5.660;2024-02-21T08:09:34;14.50;;;4.90;;
34900;SDS011;21112;51.976;5.660;2024-02-21T08:12:03;12.68;;;4.38;;
34900;SDS011;21112;51.976;5.660;2024-02-21T08:14:30;15.30;;;4.90;;
34900;SDS011;21112;51.976;5.660;2024-02-21T08:16:57;10.85;;;3.58;;
34900;SDS011;21112;51.976;5.660;2024-02-21T08:19:26;12.73;;;4.72;;
34900;SDS011;21112;51.976;5.660;2024-02-21T08:21:56;10.65;;;4.40;;
34900;SDS011;21112;51.976;5.660;2024-02-21T08:24:23;17.45;;;4.65;;
34900;SDS011;21112;51.976;5.660;2024-02-21T08:26:50;7.78;;;3.40;;
34900;SDS011;21112;51.976;5.660;2024-02-21T08:29:17;16.05;;;4.55;;
34900;SDS011;21112;51.976;5.660;2024-02-21T08:31:45;9.27;;;4.05;;
34900;SDS011;21112;51.976;5.660;2024-02-21T08:34:12;15.77;;;4.30;;
34900;SDS011;21112;51.976;5.660;2024-02-21T08:36:42;13.88;;;4.53;;
34900;SDS011;21112;51.976;5.660;2024-02-21T08:39:13;15.80;;;4.03;;
34900;SDS011;21112;51.976;5.660;2024-02-21T08:41:42;13.77;;;4.32;;
34900;SDS011;21112;51.976;5.660;2024-02-21T08:44:09;10.75;;;4.13;;
34900;SDS011;21112;51.976;5.660;2024-02-21T08:46:36;20.30;;;4.57;;
34900;SDS011;21112;51.976;5.660;2024-02-21T08:49:05;11.13;;;4.25;;
34900;SDS011;21112;51.976;5.660;2024-02-21T08:51:32;11.18;;;4.10;;
34900;SDS011;21112;51.976;5.660;2024-02-21T08:54:02;16.30;;;4.55;;
34900;SDS011;21112;51.976;5.660;2024-02-21T08:56:31;11.50;;;4.18;;
34900;SDS011;21112;51.976;5.660;2024-02-21T08:58:59;15.65;;;3.85;;
34900;SDS011;21112;51.976;5.660;2024-02-21T09:01:26;11.13;;;3.63;;
34900;SDS011;21112;51.976;5.660;2024-02-21T09:03:54;11.40;;;4.30;;
34900;SDS011;21112;51.976;5.660;2024-02-21T09:06:21;12.70;;;4.20;;
34900;SDS011;21112;51.976;5.660;2024-02-21T09:08:48;11.50;;;4.70;;
34900;SDS011;21112;51.976;5.660;2024-02-21T09:11:17;15.15;;;4.97;;
34900;SDS011;21112;51.976;5.660;2024-02-21T09:13:44;10.13;;;3.97;;
34900;SDS011;21112;51.976;5.660;2024-02-21T09:16:11;12.00;;;4.50;;
34900;SDS011;21112;51.976;5.660;2024-02-21T09:18:41;19.63;;;4.97;;
34900;SDS011;21112;51.976;5.660;2024-02-21T09:21:11;11.65;;;4.15;;
34900;SDS011;21112;51.976;5.660;2024-02-21T09:23:38;9.48;;;3.50;;
34900;SDS011;21112;51.976;5.660;2024-02-21T09:26:10;10.90;;;4.47;;
34900;SDS011;21112;51.976;5.660;2024-02-21T09:28:41;14.02;;;5.30;;
34900;SDS011;21112;51.976;5.660;2024-02-21T09:31:08;16.63;;;5.43;;
34900;SDS011;21112;51.976;5.660;2024-02-21T09:33:35;13.90;;;5.03;;
34900;SDS011;21112;51.976;5.660;2024-02-21T09:36:02;17.52;;;3.67;;
34900;SDS011;21112;51.976;5.660;2024-02-21T09:38:30;12.27;;;4.13;;
34900;SDS011;21112;51.976;5.660;2024-02-21T09:40:58;12.35;;;4.22;;
34900;SDS011;21112;51.976;5.660;2024-02-21T09:43:26;13.18;;;4.57;;
34900;SDS011;21112;51.976;5.660;2024-02-21T09:45:55;11.98;;;4.47;;
34900;SDS011;21112;51.976;5.660;2024-02-21T09:48:31;14.73;;;4.05;;
34900;SDS011;21112;51.976;5.660;2024-02-21T09:51:06;10.82;;;4.20;;
34900;SDS011;21112;51.976;5.660;2024-02-21T09:53:36;10.93;;;4.50;;
34900;SDS011;21112;51.976;5.660;2024-02-21T09:56:05;11.23;;;4.07;;
34900;SDS011;21112;51.976;5.660;2024-02-21T09:58:37;14.32;;;5.88;;
34900;SDS011;21112;51.976;5.660;2024-02-21T10:01:07;13.65;;;4.38;;
34900;SDS011;21112;51.976;5.660;2024-02-21T10:03:34;13.57;;;4.22;;
34900;SDS011;21112;51.976;5.660;2024-02-21T10:06:01;12.05;;;4.45;;
34900;SDS011;21112;51.976;5.660;2024-02-21T10:08:30;13.82;;;4.05;;
34900;SDS011;21112;51.976;5.660;2024-02-21T10:10:57;9.93;;;3.85;;
34900;SDS011;21112;51.976;5.660;2024-02-21T10:13:26;8.25;;;3.75;;
34900;SDS011;21112;51.976;5.660;2024-02-21T10:16:03;10.15;;;4.20;;
34900;SDS011;21112;51.976;5.660;2024-02-21T10:18:32;14.90;;;4.68;;
34900;SDS011;21112;51.976;5.660;2024-02-21T10:21:00;10.50;;;4.35;;
34900;SDS011;21112;51.976;5.660;2024-02-21T10:23:41;9.00;;;3.95;;
34900;SDS011;21112;51.976;5.660;2024-02-21T10:26:18;8.52;;;3.58;;
34900;SDS011;21112;51.976;5.660;2024-02-21T10:28:46;9.00;;;3.90;;
34900;SDS011;21112;51.976;5.660;2024-02-21T10:31:23;10.50;;;4.68;;
34900;SDS011;21112;51.976;5.660;2024-02-21T10:33:55;13.60;;;4.40;;
34900;SDS011;21112;51.976;5.660;2024-02-21T10:36:23;16.42;;;5.38;;
34900;SDS011;21112;51.976;5.660;2024-02-21T10:38:52;8.50;;;3.55;;
34900;SDS011;21112;51.976;5.660;2024-02-21T10:41:20;8.88;;;3.05;;
34900;SDS011;21112;51.976;5.660;2024-02-21T10:43:49;14.90;;;5.20;;
34900;SDS011;21112;51.976;5.660;2024-02-21T10:46:19;10.80;;;4.40;;
34900;SDS011;21112;51.976;5.660;2024-02-21T10:48:46;9.50;;;4.55;;
34900;SDS011;21112;51.976;5.660;2024-02-21T10:51:16;10.13;;;4.72;;
34900;SDS011;21112;51.976;5.660;2024-02-21T10:53:48;8.05;;;3.70;;
34900;SDS011;21112;51.976;5.660;2024-02-21T10:56:26;8.75;;;4.25;;
34900;SDS011;21112;51.976;5.660;2024-02-21T10:58:54;9.15;;;3.83;;
34900;SDS011;21112;51.976;5.660;2024-02-21T11:01:30;8.30;;;4.28;;
34900;SDS011;21112;51.976;5.660;2024-02-21T11:03:58;9.85;;;4.70;;
34900;SDS011;21112;51.976;5.660;2024-02-21T11:06:29;12.57;;;4.03;;
34900;SDS011;21112;51.976;5.660;2024-02-21T11:09:01;15.40;;;4.68;;
34900;SDS011;21112;51.976;5.660;2024-02-21T11:11:35;8.98;;;3.90;;
34900;SDS011;21112;51.976;5.660;2024-02-21T11:14:06;8.57;;;3.80;;
34900;SDS011;21112;51.976;5.660;2024-02-21T11:16:35;8.95;;;4.03;;
34900;SDS011;21112;51.976;5.660;2024-02-21T11:19:04;13.40;;;4.28;;
34900;SDS011;21112;51.976;5.660;2024-02-21T11:21:34;11.45;;;4.15;;
34900;SDS011;21112;51.976;5.660;2024-02-21T11:24:02;10.07;;;3.95;;
34900;SDS011;21112;51.976;5.660;2024-02-21T11:26:29;9.25;;;3.85;;
34900;SDS011;21112;51.976;5.660;2024-02-21T11:28:57;10.07;;;4.32;;
34900;SDS011;21112;51.976;5.660;2024-02-21T11:31:25;11.77;;;4.13;;
34900;SDS011;21112;51.976;5.660;2024-02-21T11:33:53;11.73;;;3.92;;
34900;SDS011;21112;51.976;5.660;2024-02-21T11:36:26;12.00;;;4.13;;
34900;SDS011;21112;51.976;5.660;2024-02-21T11:38:54;8.88;;;4.32;;
34900;SDS011;21112;51.976;5.660;2024-02-21T11:41:30;12.82;;;4.35;;
34900;SDS011;21112;51.976;5.660;2024-02-21T11:43:57;12.40;;;4.18;;
34900;SDS011;21112;51.976;5.660;2024-02-21T11:46:24;10.20;;;4.40;;
34900;SDS011;21112;51.976;5.660;2024-02-21T11:48:51;14.52;;;5.15;;
34900;SDS011;21112;51.976;5.660;2024-02-21T11:51:24;11.98;;;3.92;;
34900;SDS011;21112;51.976;5.660;2024-02-21T11:53:52;11.70;;;3.65;;
34900;SDS011;21112;51.976;5.660;2024-02-21T11:56:20;9.73;;;3.42;;
34900;SDS011;21112;51.976;5.660;2024-02-21T11:58:48;12.98;;;3.55;;
34900;SDS011;21112;51.976;5.660;2024-02-21T12:01:15;9.75;;;3.30;;
34900;SDS011;21112;51.976;5.660;2024-02-21T12:03:42;9.70;;;3.10;;
34900;SDS011;21112;51.976;5.660;2024-02-21T12:06:15;11.43;;;3.17;;
34900;SDS011;21112;51.976;5.660;2024-02-21T12:08:45;8.68;;;3.45;;
34900;SDS011;21112;51.976;5.660;2024-02-21T12:11:16;8.82;;;3.40;;
34900;SDS011;21112;51.976;5.660;2024-02-21T12:13:46;9.73;;;3.35;;
34900;SDS011;21112;51.976;5.660;2024-02-21T12:16:16;10.10;;;3.42;;
34900;SDS011;21112;51.976;5.660;2024-02-21T12:18:44;15.33;;;4.87;;
34900;SDS011;21112;51.976;5.660;2024-02-21T12:21:11;11.68;;;4.78;;
34900;SDS011;21112;51.976;5.660;2024-02-21T12:23:39;14.63;;;4.10;;
34900;SDS011;21112;51.976;5.660;2024-02-21T12:26:10;12.52;;;5.13;;
34900;SDS011;21112;51.976;5.660;2024-02-21T12:31:05;9.05;;;3.30;;
34900;SDS011;21112;51.976;5.660;2024-02-21T12:33:33;8.00;;;3.85;;
34900;SDS011;21112;51.976;5.660;2024-02-21T12:36:00;11.38;;;3.50;;
34900;SDS011;21112;51.976;5.660;2024-02-21T12:38:29;9.38;;;3.70;;
34900;SDS011;21112;51.976;5.660;2024-02-21T12:40:56;10.95;;;3.80;;
34900;SDS011;21112;51.976;5.660;2024-02-21T12:43:23;11.63;;;3.90;;
34900;SDS011;21112;51.976;5.660;2024-02-21T12:45:50;10.13;;;2.65;;
34900;SDS011;21112;51.976;5.660;2024-02-21T12:48:22;13.10;;;4.20;;
34900;SDS011;21112;51.976;5.660;2024-02-21T12:50:52;13.20;;;4.45;;
34900;SDS011;21112;51.976;5.660;2024-02-21T12:53:22;16.27;;;4.35;;
34900;SDS011;21112;51.976;5.660;2024-02-21T12:55:50;8.95;;;3.75;;
34900;SDS011;21112;51.976;5.660;2024-02-21T12:58:18;9.18;;;3.22;;
34900;SDS011;21112;51.976;5.660;2024-02-21T13:00:46;11.23;;;3.53;;
34900;SDS011;21112;51.976;5.660;2024-02-21T13:03:13;10.32;;;3.20;;
34900;SDS011;21112;51.976;5.660;2024-02-21T13:05:44;6.43;;;3.00;;
34900;SDS011;21112;51.976;5.660;2024-02-21T13:08:13;7.55;;;3.22;;
34900;SDS011;21112;51.976;5.660;2024-02-21T13:10:40;8.52;;;3.42;;
34900;SDS011;21112;51.976;5.660;2024-02-21T13:13:09;8.90;;;3.20;;
34900;SDS011;21112;51.976;5.660;2024-02-21T13:15:43;13.27;;;3.45;;
34900;SDS011;21112;51.976;5.660;2024-02-21T13:18:42;9.18;;;2.95;;
34900;SDS011;21112;51.976;5.660;2024-02-21T13:21:11;7.82;;;2.97;;
34900;SDS011;21112;51.976;5.660;2024-02-21T13:23:39;7.47;;;3.45;;
34900;SDS011;21112;51.976;5.660;2024-02-21T13:26:12;8.68;;;3.22;;
34900;SDS011;21112;51.976;5.660;2024-02-21T13:28:40;9.35;;;3.65;;
34900;SDS011;21112;51.976;5.660;2024-02-21T13:31:09;7.68;;;3.55;;
34900;SDS011;21112;51.976;5.660;2024-02-21T13:33:39;6.82;;;3.05;;
34900;SDS011;21112;51.976;5.660;2024-02-21T13:36:09;12.35;;;3.55;;
34900;SDS011;21112;51.976;5.660;2024-02-21T13:38:38;12.68;;;2.92;;
34900;SDS011;21112;51.976;5.660;2024-02-21T13:43:33;6.93;;;2.72;;
34900;SDS011;21112;51.976;5.660;2024-02-21T13:46:00;6.35;;;2.60;;
34900;SDS011;21112;51.976;5.660;2024-02-21T13:48:30;7.88;;;2.58;;
34900;SDS011;21112;51.976;5.660;2024-02-21T13:50:58;8.75;;;2.88;;
34900;SDS011;21112;51.976;5.660;2024-02-21T13:53:27;10.48;;;3.20;;
34900;SDS011;21112;51.976;5.660;2024-02-21T13:55:58;8.32;;;2.90;;
34900;SDS011;21112;51.976;5.660;2024-02-21T13:58:26;10.85;;;3.20;;
34900;SDS011;21112;51.976;5.660;2024-02-21T14:00:54;11.95;;;2.85;;
34900;SDS011;21112;51.976;5.660;2024-02-21T14:03:21;5.28;;;2.58;;
34900;SDS011;21112;51.976;5.660;2024-02-21T14:05:51;17.40;;;3.42;;
34900;SDS011;21112;51.976;5.660;2024-02-21T14:08:20;10.07;;;3.38;;
34900;SDS011;21112;51.976;5.660;2024-02-21T14:13:17;12.20;;;3.80;;
34900;SDS011;21112;51.976;5.660;2024-02-21T14:15:46;10.63;;;2.60;;
34900;SDS011;21112;51.976;5.660;2024-02-21T14:18:17;9.95;;;3.03;;
34900;SDS011;21112;51.976;5.660;2024-02-21T14:20:49;15.07;;;3.20;;
34900;SDS011;21112;51.976;5.660;2024-02-21T14:23:17;8.52;;;2.53;;
34900;SDS011;21112;51.976;5.660;2024-02-21T14:25:44;13.32;;;2.83;;
34900;SDS011;21112;51.976;5.660;2024-02-21T14:28:17;25.20;;;3.38;;
34900;SDS011;21112;51.976;5.660;2024-02-21T14:30:44;7.93;;;2.65;;
34900;SDS011;21112;51.976;5.660;2024-02-21T14:33:14;7.00;;;2.28;;
34900;SDS011;21112;51.976;5.660;2024-02-21T14:38:10;6.85;;;2.20;;
34900;SDS011;21112;51.976;5.660;2024-02-21T14:40:37;5.80;;;2.13;;
34900;SDS011;21112;51.976;5.660;2024-02-21T14:43:05;5.78;;;2.20;;
34900;SDS011;21112;51.976;5.660;2024-02-21T14:45:36;8.55;;;1.88;;
34900;SDS011;21112;51.976;5.660;2024-02-21T14:48:15;7.13;;;1.95;;
34900;SDS011;21112;51.976;5.660;2024-02-21T14:50:43;6.43;;;2.42;;
34900;SDS011;21112;51.976;5.660;2024-02-21T14:53:10;5.95;;;2.05;;
34900;SDS011;21112;51.976;5.660;2024-02-21T14:55:37;9.25;;;2.20;;
34900;SDS011;21112;51.976;5.660;2024-02-21T14:58:15;6.07;;;2.00;;
34900;SDS011;21112;51.976;5.660;2024-02-21T15:00:45;5.93;;;2.10;;
34900;SDS011;21112;51.976;5.660;2024-02-21T15:05:40;6.28;;;2.38;;
34900;SDS011;21112;51.976;5.660;2024-02-21T15:08:10;14.75;;;3.10;;
34900;SDS011;21112;51.976;5.660;2024-02-21T15:10:37;7.35;;;3.20;;
34900;SDS011;21112;51.976;5.660;2024-02-21T15:13:06;8.40;;;2.75;;
34900;SDS011;21112;51.976;5.660;2024-02-21T15:15:33;11.40;;;2.67;;
34900;SDS011;21112;51.976;5.660;2024-02-21T15:18:02;7.47;;;2.75;;
34900;SDS011;21112;51.976;5.660;2024-02-21T15:22:57;8.93;;;2.40;;
34900;SDS011;21112;51.976;5.660;2024-02-21T15:25:26;7.15;;;2.55;;
34900;SDS011;21112;51.976;5.660;2024-02-21T15:27:55;8.85;;;2.35;;
34900;SDS011;21112;51.976;5.660;2024-02-21T15:30:24;6.45;;;2.72;;
34900;SDS011;21112;51.976;5.660;2024-02-21T15:33:09;11.45;;;3.15;;
34900;SDS011;21112;51.976;5.660;2024-02-21T15:35:46;9.80;;;3.63;;
34900;SDS011;21112;51.976;5.660;2024-02-21T15:38:14;7.13;;;2.33;;
34900;SDS011;21112;51.976;5.660;2024-02-21T15:40:41;6.05;;;2.67;;
34900;SDS011;21112;51.976;5.660;2024-02-21T15:43:08;14.38;;;3.28;;
34900;SDS011;21112;51.976;5.660;2024-02-21T15:45:35;8.88;;;3.70;;
34900;SDS011;21112;51.976;5.660;2024-02-21T15:48:09;5.45;;;2.50;;
34900;SDS011;21112;51.976;5.660;2024-02-21T15:50:38;12.38;;;3.60;;
34900;SDS011;21112;51.976;5.660;2024-02-21T15:53:05;9.98;;;3.03;;
34900;SDS011;21112;51.976;5.660;2024-02-21T15:55:36;4.47;;;1.90;;
34900;SDS011;21112;51.976;5.660;2024-02-21T15:58:03;8.98;;;2.40;;
34900;SDS011;21112;51.976;5.660;2024-02-21T16:00:31;9.48;;;2.75;;
34900;SDS011;21112;51.976;5.660;2024-02-21T16:02:58;7.05;;;2.40;;
34900;SDS011;21112;51.976;5.660;2024-02-21T16:05:30;6.50;;;2.00;;
34900;SDS011;21112;51.976;5.660;2024-02-21T16:07:57;7.07;;;2.17;;
34900;SDS011;21112;51.976;5.660;2024-02-21T16:10:27;7.60;;;2.40;;
34900;SDS011;21112;51.976;5.660;2024-02-21T16:12:54;5.88;;;2.17;;
34900;SDS011;21112;51.976;5.660;2024-02-21T16:15:21;8.35;;;2.25;;
34900;SDS011;21112;51.976;5.660;2024-02-21T16:17:48;5.80;;;1.85;;
34900;SDS011;21112;51.976;5.660;2024-02-21T16:20:15;7.20;;;2.58;;
34900;SDS011;21112;51.976;5.660;2024-02-21T16:22:47;8.73;;;1.90;;
34900;SDS011;21112;51.976;5.660;2024-02-21T16:25:14;9.10;;;2.38;;
34900;SDS011;21112;51.976;5.660;2024-02-21T16:27:43;5.05;;;1.98;;
34900;SDS011;21112;51.976;5.660;2024-02-21T16:30:16;4.05;;;1.92;;
34900;SDS011;21112;51.976;5.660;2024-02-21T16:32:45;4.53;;;1.90;;
34900;SDS011;21112;51.976;5.660;2024-02-21T16:35:12;6.13;;;2.05;;
34900;SDS011;21112;51.976;5.660;2024-02-21T16:37:43;4.95;;;2.28;;
34900;SDS011;21112;51.976;5.660;2024-02-21T16:40:15;6.63;;;2.10;;
34900;SDS011;21112;51.976;5.660;2024-02-21T16:42:43;7.05;;;1.90;;
34900;SDS011;21112;51.976;5.660;2024-02-21T16:45:11;5.88;;;2.13;;
34900;SDS011;21112;51.976;5.660;2024-02-21T16:47:38;8.40;;;2.35;;
34900;SDS011;21112;51.976;5.660;2024-02-21T16:50:08;6.07;;;2.65;;
34900;SDS011;21112;51.976;5.660;2024-02-21T16:52:35;8.10;;;2.92;;
34900;SDS011;21112;51.976;5.660;2024-02-21T16:55:02;8.38;;;2.88;;
34900;SDS011;21112;51.976;5.660;2024-02-21T16:57:32;7.97;;;2.13;;
34900;SDS011;21112;51.976;5.660;2024-02-21T16:59:59;7.03;;;2.42;;
34900;SDS011;21112;51.976;5.660;2024-02-21T17:02:30;4.50;;;1.90;;
34900;SDS011;21112;51.976;5.660;2024-02-21T17:04:58;6.25;;;1.98;;
34900;SDS011;21112;51.976;5.660;2024-02-21T17:07:25;5.80;;;2.13;;
34900;SDS011;21112;51.976;5.660;2024-02-21T17:09:51;8.57;;;2.42;;
34900;SDS011;21112;51.976;5.660;2024-02-21T17:12:18;6.97;;;2.58;;
34900;SDS011;21112;51.976;5.660;2024-02-21T17:14:47;6.93;;;2.50;;
34900;SDS011;21112;51.976;5.660;2024-02-21T17:17:14;6.75;;;2.13;;
34900;SDS011;21112;51.976;5.660;2024-02-21T17:19:41;8.43;;;2.60;;
34900;SDS011;21112;51.976;5.660;2024-02-21T17:22:08;7.20;;;2.17;;
34900;SDS011;21112;51.976;5.660;2024-02-21T17:24:39;6.43;;;2.53;;
34900;SDS011;21112;51.976;5.660;2024-02-21T17:27:05;8.25;;;2.60;;
34900;SDS011;21112;51.976;5.660;2024-02-21T17:29:32;6.57;;;2.72;;
34900;SDS011;21112;51.976;5.660;2024-02-21T17:32:00;6.13;;;2.45;;
34900;SDS011;21112;51.976;5.660;2024-02-21T17:34:27;5.97;;;2.20;;
34900;SDS011;21112;51.976;5.660;2024-02-21T17:36:54;4.55;;;2.53;;
34900;SDS011;21112;51.976;5.660;2024-02-21T17:39:21;6.47;;;2.85;;
34900;SDS011;21112;51.976;5.660;2024-02-21T17:41:48;4.88;;;1.92;;
34900;SDS011;21112;51.976;5.660;2024-02-21T17:44:18;6.70;;;3.00;;
34900;SDS011;21112;51.976;5.660;2024-02-21T17:46:45;8.27;;;2.63;;
34900;SDS011;21112;51.976;5.660;2024-02-21T17:49:13;7.50;;;2.88;;
34900;SDS011;21112;51.976;5.660;2024-02-21T17:51:41;8.48;;;2.50;;
34900;SDS011;21112;51.976;5.660;2024-02-21T17:54:09;7.75;;;2.70;;
34900;SDS011;21112;51.976;5.660;2024-02-21T17:56:39;6.30;;;2.97;;
34900;SDS011;21112;51.976;5.660;2024-02-21T17:59:06;8.50;;;3.13;;
34900;SDS011;21112;51.976;5.660;2024-02-21T18:01:32;7.22;;;2.80;;
34900;SDS011;21112;51.976;5.660;2024-02-21T18:03:59;7.13;;;2.92;;
34900;SDS011;21112;51.976;5.660;2024-02-21T18:06:28;6.18;;;2.90;;
34900;SDS011;21112;51.976;5.660;2024-02-21T18:08:54;6.68;;;3.03;;
34900;SDS011;21112;51.976;5.660;2024-02-21T18:11:23;5.22;;;2.67;;
34900;SDS011;21112;51.976;5.660;2024-02-21T18:13:50;9.23;;;2.88;;
34900;SDS011;21112;51.976;5.660;2024-02-21T18:16:20;7.43;;;2.97;;
34900;SDS011;21112;51.976;5.660;2024-02-21T18:18:47;5.20;;;2.73;;
34900;SDS011;21112;51.976;5.660;2024-02-21T18:21:14;10.65;;;3.17;;
34900;SDS011;21112;51.976;5.660;2024-02-21T18:23:43;9.85;;;3.08;;
34900;SDS011;21112;51.976;5.660;2024-02-21T18:26:11;7.13;;;3.05;;
34900;SDS011;21112;51.976;5.660;2024-02-21T18:28:38;6.95;;;3.08;;
34900;SDS011;21112;51.976;5.660;2024-02-21T18:31:04;6.43;;;2.42;;
34900;SDS011;21112;51.976;5.660;2024-02-21T18:33:31;6.95;;;3.10;;
34900;SDS011;21112;51.976;5.660;2024-02-21T18:35:59;9.43;;;3.33;;
34900;SDS011;21112;51.976;5.660;2024-02-21T18:38:25;9.10;;;4.13;;
34900;SDS011;21112;51.976;5.660;2024-02-21T18:40:55;7.05;;;3.53;;
34900;SDS011;21112;51.976;5.660;2024-02-21T18:43:22;7.63;;;3.42;;
34900;SDS011;21112;51.976;5.660;2024-02-21T18:45:49;5.10;;;2.92;;
34900;SDS011;21112;51.976;5.660;2024-02-21T18:48:15;9.82;;;3.40;;
34900;SDS011;21112;51.976;5.660;2024-02-21T18:50:42;8.77;;;3.38;;
34900;SDS011;21112;51.976;5.660;2024-02-21T18:53:09;8.07;;;3.25;;
34900;SDS011;21112;51.976;5.660;2024-02-21T18:55:36;8.40;;;3.30;;
34900;SDS011;21112;51.976;5.660;2024-02-21T18:58:04;5.28;;;2.80;;
34900;SDS011;21112;51.976;5.660;2024-02-21T19:00:31;7.47;;;2.90;;
34900;SDS011;21112;51.976;5.660;2024-02-21T19:02:58;7.53;;;3.35;;
34900;SDS011;21112;51.976;5.660;2024-02-21T19:05:25;10.65;;;3.53;;
34900;SDS011;21112;51.976;5.660;2024-02-21T19:07:52;5.40;;;2.72;;
34900;SDS011;21112;51.976;5.660;2024-02-21T19:10:18;6.28;;;2.30;;
34900;SDS011;21112;51.976;5.660;2024-02-21T19:12:47;7.38;;;2.55;;
34900;SDS011;21112;51.976;5.660;2024-02-21T19:15:15;5.60;;;2.70;;
34900;SDS011;21112;51.976;5.660;2024-02-21T19:20:10;6.88;;;2.40;;
34900;SDS011;21112;51.976;5.660;2024-02-21T19:22:38;7.25;;;3.03;;
34900;SDS011;21112;51.976;5.660;2024-02-21T19:25:07;10.77;;;4.30;;
34900;SDS011;21112;51.976;5.660;2024-02-21T19:27:42;7.47;;;3.33;;
34900;SDS011;21112;51.976;5.660;2024-02-21T19:30:19;5.15;;;2.38;;
34900;SDS011;21112;51.976;5.660;2024-02-21T19:32:55;5.35;;;2.22;;
34900;SDS011;21112;51.976;5.660;2024-02-21T19:35:21;5.35;;;2.30;;
34900;SDS011;21112;51.976;5.660;2024-02-21T19:37:50;8.10;;;2.40;;
34900;SDS011;21112;51.976;5.660;2024-02-21T19:40:17;10.30;;;2.67;;
34900;SDS011;21112;51.976;5.660;2024-02-21T19:42:45;4.97;;;2.75;;
34900;SDS011;21112;51.976;5.660;2024-02-21T19:45:12;5.70;;;2.70;;
34900;SDS011;21112;51.976;5.660;2024-02-21T19:47:43;4.43;;;2.37;;
34900;SDS011;21112;51.976;5.660;2024-02-21T19:50:10;4.35;;;2.20;;
34900;SDS011;21112;51.976;5.660;2024-02-21T19:52:43;5.05;;;2.53;;
34900;SDS011;21112;51.976;5.660;2024-02-21T19:55:10;10.35;;;3.63;;
34900;SDS011;21112;51.976;5.660;2024-02-21T19:57:37;10.18;;;2.70;;
34900;SDS011;21112;51.976;5.660;2024-02-21T20:00:04;6.18;;;2.40;;
34900;SDS011;21112;51.976;5.660;2024-02-21T20:02:32;7.75;;;3.30;;
34900;SDS011;21112;51.976;5.660;2024-02-21T20:05:00;7.45;;;2.92;;
34900;SDS011;21112;51.976;5.660;2024-02-21T20:07:30;8.20;;;2.28;;
34900;SDS011;21112;51.976;5.660;2024-02-21T20:09:57;5.93;;;2.45;;
34900;SDS011;21112;51.976;5.660;2024-02-21T20:12:24;12.50;;;3.22;;
34900;SDS011;21112;51.976;5.660;2024-02-21T20:14:51;6.57;;;3.00;;
34900;SDS011;21112;51.976;5.660;2024-02-21T20:17:19;4.95;;;2.47;;
34900;SDS011;21112;51.976;5.660;2024-02-21T20:19:47;4.80;;;1.98;;
34900;SDS011;21112;51.976;5.660;2024-02-21T20:22:18;9.35;;;2.60;;
34900;SDS011;21112;51.976;5.660;2024-02-21T20:24:45;4.97;;;2.28;;
34900;SDS011;21112;51.976;5.660;2024-02-21T20:27:12;7.72;;;2.22;;
34900;SDS011;21112;51.976;5.660;2024-02-21T20:29:42;5.22;;;2.35;;
34900;SDS011;21112;51.976;5.660;2024-02-21T20:32:12;4.15;;;1.83;;
34900;SDS011;21112;51.976;5.660;2024-02-21T20:34:39;4.18;;;2.03;;
34900;SDS011;21112;51.976;5.660;2024-02-21T20:37:06;7.35;;;3.05;;
34900;SDS011;21112;51.976;5.660;2024-02-21T20:39:37;5.47;;;2.35;;
34900;SDS011;21112;51.976;5.660;2024-02-21T20:42:10;7.18;;;2.58;;
34900;SDS011;21112;51.976;5.660;2024-02-21T20:44:37;5.13;;;2.22;;
34900;SDS011;21112;51.976;5.660;2024-02-21T20:47:06;4.43;;;2.58;;
34900;SDS011;21112;51.976;5.660;2024-02-21T20:49:33;4.85;;;2.15;;
34900;SDS011;21112;51.976;5.660;2024-02-21T20:52:00;2.53;;;1.88;;
34900;SDS011;21112;51.976;5.660;2024-02-21T20:54:30;4.78;;;2.10;;
34900;SDS011;21112;51.976;5.660;2024-02-21T20:57:00;4.72;;;2.08;;
34900;SDS011;21112;51.976;5.660;2024-02-21T20:59:27;5.55;;;2.28;;
34900;SDS011;21112;51.976;5.660;2024-02-21T21:01:54;3.70;;;2.10;;
34900;SDS011;21112;51.976;5.660;2024-02-21T21:04:21;3.97;;;1.92;;
34900;SDS011;21112;51.976;5.660;2024-02-21T21:06:48;6.18;;;2.13;;
34900;SDS011;21112;51.976;5.660;2024-02-21T21:09:17;3.13;;;1.88;;
34900;SDS011;21112;51.976;5.660;2024-02-21T21:11:47;5.82;;;2.35;;
34900;SDS011;21112;51.976;5.660;2024-02-21T21:14:15;3.83;;;1.80;;
34900;SDS011;21112;51.976;5.660;2024-02-21T21:16:43;4.82;;;2.08;;
34900;SDS011;21112;51.976;5.660;2024-02-21T21:19:11;3.65;;;1.92;;
34900;SDS011;21112;51.976;5.660;2024-02-21T21:21:37;3.47;;;1.85;;
34900;SDS011;21112;51.976;5.660;2024-02-21T21:24:07;4.35;;;1.88;;
34900;SDS011;21112;51.976;5.660;2024-02-21T21:26:34;3.72;;;1.95;;
34900;SDS011;21112;51.976;5.660;2024-02-21T21:29:01;3.50;;;1.90;;
34900;SDS011;21112;51.976;5.660;2024-02-21T21:31:29;3.28;;;1.80;;
34900;SDS011;21112;51.976;5.660;2024-02-21T21:33:59;4.88;;;2.17;;
34900;SDS011;21112;51.976;5.660;2024-02-21T21:36:26;2.20;;;1.40;;
34900;SDS011;21112;51.976;5.660;2024-02-21T21:38:54;3.35;;;1.75;;
34900;SDS011;21112;51.976;5.660;2024-02-21T21:41:21;2.60;;;1.42;;
34900;SDS011;21112;51.976;5.660;2024-02-21T21:43:52;3.83;;;1.88;;
34900;SDS011;21112;51.976;5.660;2024-02-21T21:46:21;3.20;;;1.48;;
34900;SDS011;21112;51.976;5.660;2024-02-21T21:48:49;3.00;;;1.33;;
34900;SDS011;21112;51.976;5.660;2024-02-21T21:51:18;3.47;;;1.50;;
34900;SDS011;21112;51.976;5.660;2024-02-21T21:53:45;3.85;;;1.70;;
34900;SDS011;21112;51.976;5.660;2024-02-21T21:56:12;2.53;;;1.42;;
34900;SDS011;21112;51.976;5.660;2024-02-21T21:58:40;1.48;;;1.15;;
34900;SDS011;21112;51.976;5.660;2024-02-21T22:01:09;2.88;;;1.67;;
34900;SDS011;21112;51.976;5.660;2024-02-21T22:03:41;2.80;;;1.40;;
34900;SDS011;21112;51.976;5.660;2024-02-21T22:06:10;2.78;;;1.30;;
34900;SDS011;21112;51.976;5.660;2024-02-21T22:08:38;1.73;;;1.10;;
34900;SDS011;21112;51.976;5.660;2024-02-21T22:11:05;2.30;;;1.30;;
34900;SDS011;21112;51.976;5.660;2024-02-21T22:13:38;4.65;;;1.42;;
34900;SDS011;21112;51.976;5.660;2024-02-21T22:16:12;1.77;;;1.30;;
34900;SDS011;21112;51.976;5.660;2024-02-21T22:18:40;2.40;;;1.42;;
34900;SDS011;21112;51.976;5.660;2024-02-21T22:21:11;3.75;;;1.58;;
34900;SDS011;21112;51.976;5.660;2024-02-21T22:23:44;5.13;;;1.95;;
34900;SDS011;21112;51.976;5.660;2024-02-21T22:26:19;1.85;;;1.13;;
34900;SDS011;21112;51.976;5.660;2024-02-21T22:28:46;2.50;;;1.30;;